Time;durP1;ratioP1;P1;durP2;ratioP2;P2;SDS_P1;SDS_P2;PMS_P1;PMS_P2;Temp;Humidity;BMP_temperature;BMP_pressure;BME280_temperature;BME280_humidity;BME280_pressure;Samples;Min_cycle;Max_cycle;Signal;HPM_P1;HPM_P2
2023/03/11 00:01:40;;;;;;;;;;;;;;;16.17;52.72;97098.69;5094772;28;20014;-78
2023/03/11 00:04:06;;;;;;;;;;;;;;;16.17;52.54;97098.69;5116967;28;19966;-79
2023/03/11 00:06:33;;;;;;;;;;;;;;;16.18;52.73;97099.53;5116758;28;19971;-79
2023/03/11 00:08:58;;;;;;;;;;;;;;;16.18;52.78;97095.06;5098626;28;20027;-77
2023/03/11 00:11:24;;;;;;;;;;;;;;;16.19;52.94;97080.09;5098962;28;20024;-77
2023/03/11 00:13:49;;;;;;;;;;;;;;;16.19;52.79;97075.66;5081382;28;19923;-78
2023/03/11 00:16:14;;;;;;;;;;;;;;;16.20;52.96;97074.63;5081607;28;20306;-78
2023/03/11 00:18:39;;;;;;;;;;;;;;;16.19;52.94;97069.56;5098779;28;20006;-78
2023/03/11 00:21:05;;;;;;;;;;;;;;;16.20;52.79;97072.00;5081414;28;19967;-78
2023/03/11 00:23:31;;;;;;;;;;;;;;;16.22;52.96;97066.53;5098556;28;19958;-78
2023/03/11 00:25:58;;;;;;;;;;;;;;;16.20;52.94;97058.84;5098361;28;19923;-78
2023/03/11 00:28:25;;;;;;;;;;;;;;;16.19;53.11;97053.75;5098245;28;19971;-78
2023/03/11 00:30:50;;;;;;;;;;;;;;;16.19;53.11;97053.75;5081327;28;19958;-78
2023/03/11 00:33:16;;;;;;;;;;;;;;;16.17;53.33;97045.25;5098398;28;20409;-78
2023/03/11 00:35:41;;;;;;;;;;;;;;;16.16;53.03;97035.72;5098254;28;20366;-80
2023/03/11 00:38:07;;;;;;;;;;;;;;;16.13;53.44;97038.75;5081394;28;19919;-79
2023/03/11 00:40:33;;;;;;;;;;;;;;;16.12;53.28;97051.09;5081028;28;19916;-80
2023/03/11 00:42:58;;;;;;;;;;;;;;;16.10;53.52;97048.66;5097304;28;19919;-79
2023/03/11 00:45:23;;;;;;;;;;;;;;;16.09;53.61;97040.94;5097975;28;19916;-80
2023/03/11 00:47:49;;;;;;;;;;;;;;;16.08;53.49;97037.53;5080883;28;19915;-80
2023/03/11 00:50:16;;;;;;;;;;;;;;;16.07;53.55;97027.97;5080658;28;19923;-80
2023/03/11 00:52:42;;;;;;;;;;;;;;;16.07;53.91;97033.25;5080807;28;20287;-80
2023/03/11 00:55:07;;;;;;;;;;;;;;;16.08;53.96;97029.63;5080331;28;19926;-79
2023/03/11 00:57:32;;;;;;;;;;;;;;;16.08;53.95;97016.47;5080612;28;19923;-78
2023/03/11 00:59:58;;;;;;;;;;;;;;;16.10;53.89;97006.53;5080330;28;20002;-80
2023/03/11 01:02:23;;;;;;;;;;;;;;;16.08;54.25;97008.56;5080232;28;19924;-78
2023/03/11 01:04:52;;;;;;;;;;;;;;;16.10;54.07;97001.28;5115594;28;19972;-78
2023/03/11 01:07:17;;;;;;;;;;;;;;;16.12;53.98;97001.09;5080320;28;19916;-78
2023/03/11 01:09:43;;;;;;;;;;;;;;;16.12;54.17;96987.94;5079837;28;19915;-79
2023/03/11 01:12:08;;;;;;;;;;;;;;;16.15;54.13;96984.91;5097628;28;19927;-78
2023/03/11 01:14:33;;;;;;;;;;;;;;;16.15;53.97;96974.38;5096004;28;19916;-79
2023/03/11 01:16:58;;;;;;;;;;;;;;;16.15;54.05;96974.38;5080212;28;20410;-79
2023/03/11 01:19:24;;;;;;;;;;;;;;;16.16;54.26;96962.84;5115209;28;19965;-79
2023/03/11 01:21:49;;;;;;;;;;;;;;;16.19;54.24;96966.88;5097066;28;19962;-79
2023/03/11 01:24:14;;;;;;;;;;;;;;;16.19;54.13;96965.09;5096512;28;19916;-79
2023/03/11 01:26:40;;;;;;;;;;;;;;;16.19;54.34;96957.19;5115331;28;19922;-78
2023/03/11 01:29:05;;;;;;;;;;;;;;;16.22;54.37;96958.59;5096786;28;20018;-79
2023/03/11 01:31:30;;;;;;;;;;;;;;;16.23;54.26;96962.88;5114852;28;19973;-79
2023/03/11 01:33:56;;;;;;;;;;;;;;;16.22;54.30;96945.44;5097094;28;19920;-78
2023/03/11 01:36:21;;;;;;;;;;;;;;;16.24;54.43;96943.41;5096708;28;19920;-79
2023/03/11 01:38:46;;;;;;;;;;;;;;;16.24;54.32;96941.63;5079783;28;19916;-78
2023/03/11 01:41:11;;;;;;;;;;;;;;;16.24;54.50;96944.25;5079669;28;20382;-78
2023/03/11 01:43:43;;;;;;;;;;;;;;;16.25;54.28;96934.50;5079645;28;20362;-78
2023/03/11 01:46:08;;;;;;;;;;;;;;;16.24;54.58;96930.25;5114855;28;19916;-78
2023/03/11 01:48:33;;;;;;;;;;;;;;;16.25;54.42;96930.06;5115262;28;19915;-79
2023/03/11 01:50:59;;;;;;;;;;;;;;;16.27;54.58;96924.59;5079611;28;19919;-79
2023/03/11 01:53:24;;;;;;;;;;;;;;;16.26;54.50;96926.41;5079702;28;19923;-78
2023/03/11 01:55:49;;;;;;;;;;;;;;;16.26;54.70;96928.25;5079273;28;20313;-78
2023/03/11 01:58:16;;;;;;;;;;;;;;;16.28;54.61;96926.22;5079241;28;20333;-80
2023/03/11 02:00:41;;;;;;;;;;;;;;;16.26;54.75;96921.16;5079377;28;20034;-78
2023/03/11 02:03:10;;;;;;;;;;;;;;;16.27;54.59;96925.41;5079234;28;19967;-80
2023/03/11 02:05:35;;;;;;;;;;;;;;;16.29;54.68;96925.22;5079299;28;20389;-79
2023/03/11 02:08:01;;;;;;;;;;;;;;;16.29;54.78;96912.06;5096371;28;19918;-79
2023/03/11 02:10:26;;;;;;;;;;;;;;;16.29;54.68;96906.78;5096182;28;19923;-79
2023/03/11 02:12:51;;;;;;;;;;;;;;;16.31;54.91;96909.22;5096284;28;19916;-78
2023/03/11 02:15:17;;;;;;;;;;;;;;;16.31;54.83;96901.34;5078886;28;20298;-80
2023/03/11 02:17:42;;;;;;;;;;;;;;;16.28;54.80;96900.69;5114505;28;19973;-80
2023/03/11 02:20:11;;;;;;;;;;;;;;;16.30;54.82;96892.59;5079364;28;19926;-79
2023/03/11 02:22:37;;;;;;;;;;;;;;;16.30;54.83;96903.13;5095658;28;20015;-79
2023/03/11 02:25:04;;;;;;;;;;;;;;;16.30;54.97;96903.13;5096661;28;19959;-79
2023/03/11 02:27:30;;;;;;;;;;;;;;;16.30;54.93;96897.06;5095053;28;19916;-80
2023/03/11 02:29:55;;;;;;;;;;;;;;;16.32;54.90;96900.31;5096048;28;19915;-80
2023/03/11 02:32:21;;;;;;;;;;;;;;;16.30;55.11;96892.59;5079128;28;20524;-80
2023/03/11 02:34:46;;;;;;;;;;;;;;;16.30;55.00;96889.97;5096077;28;19923;-80
2023/03/11 02:37:12;;;;;;;;;;;;;;;16.29;55.33;96869.94;5114063;28;19916;-80
2023/03/11 02:39:37;;;;;;;;;;;;;;;16.31;55.17;96854.75;5079041;28;19916;-79
2023/03/11 02:42:21;;;;;;;;;;;;;;;16.30;55.37;96861.00;5095916;28;19938;-78
2023/03/11 02:44:49;;;;;;;;;;;;;;;16.30;55.19;96878.63;5078989;28;19962;-78
2023/03/11 02:47:14;;;;;;;;;;;;;;;16.30;55.38;96876.00;5113888;28;19970;-80
2023/03/11 02:49:39;;;;;;;;;;;;;;;16.28;55.23;96868.31;5078769;28;19920;-79
2023/03/11 02:52:05;;;;;;;;;;;;;;;16.27;55.38;96878.03;5114483;28;19919;-80
2023/03/11 02:54:30;;;;;;;;;;;;;;;16.28;55.40;96871.75;5094959;28;20003;-81
2023/03/11 02:56:55;;;;;;;;;;;;;;;16.26;55.41;96876.41;5078732;28;20081;-79
2023/03/11 02:59:21;;;;;;;;;;;;;;;16.29;55.48;96867.31;5113960;28;20355;-79
2023/03/11 03:01:46;;;;;;;;;;;;;;;16.25;55.71;96879.22;5095891;28;19930;-78
2023/03/11 03:04:11;;;;;;;;;;;;;;;16.24;55.73;96869.69;5091584;28;19920;-80
2023/03/11 03:06:36;;;;;;;;;;;;;;;16.24;55.90;96877.59;5092157;28;19927;-78
2023/03/11 03:09:02;;;;;;;;;;;;;;;16.23;55.73;96865.47;5093571;28;19916;-79
2023/03/11 03:11:27;;;;;;;;;;;;;;;16.21;55.83;96870.94;5093615;28;20526;-79
2023/03/11 03:13:52;;;;;;;;;;;;;;;16.20;55.78;96871.94;5093242;28;19916;-79
2023/03/11 03:16:18;;;;;;;;;;;;;;;16.19;55.88;96875.59;5091785;28;19942;-79
2023/03/11 03:18:43;;;;;;;;;;;;;;;16.19;55.89;96872.13;5091657;28;19916;-78
2023/03/11 03:21:08;;;;;;;;;;;;;;;16.18;56.00;96871.31;5091578;28;19920;-79
2023/03/11 03:23:36;;;;;;;;;;;;;;;16.17;55.83;96868.88;5074919;28;19980;-79
2023/03/11 03:26:02;;;;;;;;;;;;;;;16.15;56.17;96869.09;5091654;28;19916;-79
2023/03/11 03:28:27;;;;;;;;;;;;;;;16.14;55.93;96864.03;5075029;28;20475;-79
2023/03/11 03:30:52;;;;;;;;;;;;;;;16.13;56.03;96868.47;5075117;28;19917;-79
2023/03/11 03:33:18;;;;;;;;;;;;;;;16.11;56.08;96862.59;5074681;28;20018;-79
2023/03/11 03:35:43;;;;;;;;;;;;;;;16.11;56.07;96867.84;5092068;28;19916;-78
2023/03/11 03:38:08;;;;;;;;;;;;;;;16.10;56.27;96866.25;5074665;28;20003;-79
2023/03/11 03:40:34;;;;;;;;;;;;;;;16.07;56.14;96861.38;5091676;28;19920;-78
2023/03/11 03:42:59;;;;;;;;;;;;;;;16.06;56.35;96857.09;5092549;28;19938;-80
2023/03/11 03:45:24;;;;;;;;;;;;;;;16.04;56.27;96857.31;5092029;28;20363;-80
2023/03/11 03:47:50;;;;;;;;;;;;;;;16.02;56.27;96854.06;5091530;28;19922;-78
2023/03/11 03:50:15;;;;;;;;;;;;;;;16.02;56.28;96864.59;5091567;28;19920;-78
2023/03/11 03:52:40;;;;;;;;;;;;;;;16.00;56.35;96853.47;5074542;28;19916;-78
2023/03/11 03:55:06;;;;;;;;;;;;;;;15.99;56.29;96858.94;5091188;28;19916;-78
2023/03/11 03:57:31;;;;;;;;;;;;;;;15.97;56.30;96853.84;5091797;28;19944;-78
2023/03/11 03:59:56;;;;;;;;;;;;;;;15.95;56.59;96855.06;5091678;28;20014;-77
2023/03/11 04:02:22;;;;;;;;;;;;;;;15.93;56.48;96850.00;5091126;28;19924;-79
2023/03/11 04:04:47;;;;;;;;;;;;;;;15.93;56.60;96854.44;5091644;28;19916;-78
2023/03/11 04:07:12;;;;;;;;;;;;;;;15.90;56.29;96853.81;5091418;28;19924;-80
2023/03/11 04:09:41;;;;;;;;;;;;;;;15.88;56.70;96844.50;5090979;28;19927;-80
2023/03/11 04:12:06;;;;;;;;;;;;;;;15.87;56.61;96840.25;5074600;28;19916;-80
2023/03/11 04:14:31;;;;;;;;;;;;;;;15.85;56.80;96837.00;5091895;28;19923;-79
2023/03/11 04:16:57;;;;;;;;;;;;;;;15.84;56.90;96838.00;5091080;28;19965;-79
2023/03/11 04:19:22;;;;;;;;;;;;;;;15.84;56.84;96830.13;5091358;28;19916;-79
2023/03/11 04:21:49;;;;;;;;;;;;;;;15.82;56.88;96832.16;5074351;28;19927;-79
2023/03/11 04:24:14;;;;;;;;;;;;;;;15.81;56.97;96826.03;5091404;28;19916;-78
2023/03/11 04:26:40;;;;;;;;;;;;;;;15.80;56.81;96816.56;5091872;28;19916;-88
2023/03/11 04:29:05;;;;;;;;;;;;;;;15.81;57.03;96819.97;5091625;28;20299;-77
2023/03/11 04:31:30;;;;;;;;;;;;;;;15.80;56.87;96819.19;5092666;28;20371;-77
2023/03/11 04:33:56;;;;;;;;;;;;;;;15.79;57.16;96804.41;5091299;28;19923;-77
2023/03/11 04:36:21;;;;;;;;;;;;;;;15.79;57.00;96814.91;5074207;28;19916;-77
2023/03/11 04:38:46;;;;;;;;;;;;;;;15.80;57.09;96819.19;5092095;28;19974;-78
2023/03/11 04:41:12;;;;;;;;;;;;;;;15.80;57.00;96827.06;5091105;28;20440;-78
2023/03/11 04:43:37;;;;;;;;;;;;;;;15.81;57.09;96822.63;5089878;28;19922;-79
2023/03/11 04:46:02;;;;;;;;;;;;;;;15.82;57.13;96832.94;5073376;28;19923;-77
2023/03/11 04:48:28;;;;;;;;;;;;;;;15.84;56.87;96830.91;5092220;28;19962;-78
2023/03/11 04:50:54;;;;;;;;;;;;;;;15.87;56.91;96832.34;5093715;28;19962;-78
2023/03/11 04:53:19;;;;;;;;;;;;;;;15.90;56.98;96838.03;5076819;28;20326;-79
2023/03/11 04:55:46;;;;;;;;;;;;;;;15.95;56.94;96839.25;5094372;28;19916;-79
2023/03/11 04:58:12;;;;;;;;;;;;;;;16.00;56.80;96832.41;5094314;28;19916;-80
2023/03/11 05:00:37;;;;;;;;;;;;;;;16.08;56.44;96829.59;5094268;28;19923;-76
2023/03/11 05:03:02;;;;;;;;;;;;;;;16.16;56.38;96835.66;5104955;28;20329;-78
2023/03/11 05:05:27;;;;;;;;;;;;;;;16.37;55.67;96837.34;5079779;28;19920;-78
2023/03/11 05:07:53;;;;;;;;;;;;;;;16.45;55.59;96837.94;5097044;28;19923;-78
2023/03/11 05:10:21;;;;;;;;;;;;;;;16.53;55.48;96841.41;5097146;28;19916;-78
2023/03/11 05:12:47;;;;;;;;;;;;;;;16.68;55.07;96844.66;5097231;28;20334;-78
2023/03/11 05:15:12;;;;;;;;;;;;;;;17.04;54.51;96846.09;5080294;28;19916;-77
2023/03/11 05:17:37;;;;;;;;;;;;;;;17.08;54.41;96839.41;5079259;28;19927;-78
2023/03/11 05:20:06;;;;;;;;;;;;;;;17.14;54.00;96843.03;5080164;28;19916;-80
2023/03/11 05:22:31;;;;;;;;;;;;;;;17.08;54.37;96842.03;5097092;28;19923;-79
2023/03/11 05:24:57;;;;;;;;;;;;;;;17.05;54.28;96845.09;5096502;28;19916;-78
2023/03/11 05:27:22;;;;;;;;;;;;;;;17.02;54.48;96850.78;5080052;28;19923;-77
2023/03/11 05:29:47;;;;;;;;;;;;;;;16.99;54.57;96853.81;5080099;28;19920;-77
2023/03/11 05:32:12;;;;;;;;;;;;;;;16.95;54.68;96850.78;5079766;28;19939;-76
2023/03/11 05:34:38;;;;;;;;;;;;;;;16.91;54.95;96849.56;5096663;28;20309;-75
2023/03/11 05:37:03;;;;;;;;;;;;;;;16.88;54.95;96851.78;5097055;28;20271;-77
2023/03/11 05:39:28;;;;;;;;;;;;;;;16.85;55.15;96852.16;5097527;28;19920;-77
2023/03/11 05:41:55;;;;;;;;;;;;;;;16.81;55.12;96854.41;5096072;28;19965;-76
2023/03/11 05:44:21;;;;;;;;;;;;;;;16.78;55.31;96854.81;5115240;28;19919;-78
2023/03/11 05:46:46;;;;;;;;;;;;;;;16.77;55.32;96847.91;5097053;28;20267;-76
2023/03/11 05:49:11;;;;;;;;;;;;;;;16.75;55.58;96852.56;5096367;28;19916;-78
2023/03/11 05:51:37;;;;;;;;;;;;;;;16.72;55.48;96850.34;5079696;28;19916;-79
2023/03/11 05:54:02;;;;;;;;;;;;;;;16.71;55.87;96852.16;5080034;28;19972;-78
2023/03/11 05:56:28;;;;;;;;;;;;;;;16.70;55.61;96854.97;5096711;28;19984;-76
2023/03/11 05:58:53;;;;;;;;;;;;;;;16.69;55.83;96850.75;5114924;28;19964;-76
2023/03/11 06:01:19;;;;;;;;;;;;;;;16.78;59.02;96852.16;5096419;28;19926;-76
2023/03/11 06:03:44;;;;;;;;;;;;;;;16.78;58.31;96845.06;5078975;28;20298;-78
2023/03/11 06:06:11;;;;;;;;;;;;;;;16.78;57.85;96839.81;5096275;28;19922;-76
2023/03/11 06:08:37;;;;;;;;;;;;;;;16.77;57.60;96840.00;5114249;28;19916;-77
2023/03/11 06:11:04;;;;;;;;;;;;;;;16.76;57.43;96830.47;5096397;28;19947;-77
2023/03/11 06:13:29;;;;;;;;;;;;;;;16.74;57.49;96824.59;5097511;28;19922;-79
2023/03/11 06:15:55;;;;;;;;;;;;;;;16.87;59.94;96835.16;5084963;28;20314;-78
2023/03/11 06:18:20;;;;;;;;;;;;;;;16.92;60.20;96824.00;5079081;28;20282;-77
2023/03/11 06:20:45;;;;;;;;;;;;;;;16.98;60.86;96831.09;5097193;28;19922;-84
2023/03/11 06:23:11;;;;;;;;;;;;;;;17.00;60.08;96834.34;5080147;28;19922;-81
2023/03/11 06:25:36;;;;;;;;;;;;;;;17.02;59.72;96820.97;5114309;28;19916;-82
2023/03/11 06:28:05;;;;;;;;;;;;;;;16.99;59.62;96822.97;5114839;28;19916;-83
2023/03/11 06:30:30;;;;;;;;;;;;;;;16.98;59.21;96816.09;5079278;28;19923;-83
2023/03/11 06:32:55;;;;;;;;;;;;;;;16.96;59.24;96819.94;5080200;28;19916;-83
2023/03/11 06:35:22;;;;;;;;;;;;;;;17.01;58.94;96822.78;5078959;28;19916;-81
2023/03/11 06:37:47;;;;;;;;;;;;;;;17.07;58.36;96821.97;5079516;28;20352;-82
2023/03/11 06:40:13;;;;;;;;;;;;;;;17.14;57.99;96824.56;5080185;28;19916;-82
2023/03/11 06:42:38;;;;;;;;;;;;;;;17.24;57.51;96824.19;5086503;28;19928;-83
2023/03/11 06:45:03;;;;;;;;;;;;;;;17.32;57.32;96824.75;5089687;28;19916;-82
2023/03/11 06:47:29;;;;;;;;;;;;;;;17.42;56.96;96821.69;5079386;28;19916;-83
2023/03/11 06:49:54;;;;;;;;;;;;;;;17.58;56.64;96819.59;5079291;28;19922;-82
2023/03/11 06:52:19;;;;;;;;;;;;;;;17.76;55.99;96824.19;5078956;28;19920;-81
2023/03/11 06:54:45;;;;;;;;;;;;;;;18.03;55.24;96817.00;5095910;28;19920;-82
2023/03/11 06:57:10;;;;;;;;;;;;;;;18.35;54.63;96819.66;5078691;28;19916;-81
2023/03/11 06:59:35;;;;;;;;;;;;;;;18.77;55.24;96804.06;5096864;28;19915;-77
2023/03/11 07:02:02;;;;;;;;;;;;;;;19.26;54.06;96799.78;5117727;28;19920;-78
2023/03/11 07:04:28;;;;;;;;;;;;;;;19.80;53.02;96792.06;5095118;28;19976;-77
2023/03/11 07:06:53;;;;;;;;;;;;;;;20.34;53.60;96784.19;5078277;28;19916;-73
2023/03/11 07:09:21;;;;;;;;;;;;;;;21.02;51.46;96778.63;5095590;28;19922;-78
2023/03/11 07:11:46;;;;;;;;;;;;;;;21.58;49.23;96766.53;5078686;28;20368;-74
2023/03/11 07:14:11;;;;;;;;;;;;;;;22.03;48.37;96751.72;5078004;28;19920;-75
2023/03/11 07:16:37;;;;;;;;;;;;;;;22.69;46.89;96753.84;5078553;28;20301;-78
2023/03/11 07:19:02;;;;;;;;;;;;;;;23.09;45.79;96748.31;5077931;28;19915;-77
2023/03/11 07:21:28;;;;;;;;;;;;;;;23.56;44.50;96752.38;5077407;28;19936;-76
2023/03/11 07:23:53;;;;;;;;;;;;;;;23.90;43.61;96752.22;5078063;28;19964;-76
2023/03/11 07:26:22;;;;;;;;;;;;;;;24.02;43.13;96757.38;5095105;28;19915;-77
2023/03/11 07:28:48;;;;;;;;;;;;;;;23.98;42.53;96757.09;5094286;28;19928;-76
2023/03/11 07:31:17;;;;;;;;;;;;;;;23.94;42.31;96760.50;5113285;28;20027;-77
2023/03/11 07:33:42;;;;;;;;;;;;;;;23.97;41.89;96757.34;5094849;28;19916;-81
2023/03/11 07:36:08;;;;;;;;;;;;;;;24.40;40.96;96750.28;5095123;28;19916;-76
2023/03/11 07:38:34;;;;;;;;;;;;;;;24.50;40.54;96757.56;5095204;28;19922;-76
2023/03/11 07:40:59;;;;;;;;;;;;;;;24.50;40.40;96762.88;5113273;28;20000;-77
2023/03/11 07:43:25;;;;;;;;;;;;;;;24.42;39.92;96763.34;5094732;28;19920;-77
2023/03/11 07:45:50;;;;;;;;;;;;;;;24.52;39.90;96758.09;5094826;28;20427;-76
2023/03/11 07:48:15;;;;;;;;;;;;;;;24.86;39.21;96758.63;5094999;28;20379;-75
2023/03/11 07:50:41;;;;;;;;;;;;;;;25.12;38.94;96749.97;5095422;28;20015;-77
2023/03/11 07:53:06;;;;;;;;;;;;;;;25.08;38.96;96750.50;5095666;28;19916;-75
2023/03/11 07:55:32;;;;;;;;;;;;;;;24.86;39.04;96749.81;5095210;28;19972;-76
2023/03/11 07:57:57;;;;;;;;;;;;;;;24.72;39.06;96746.81;5094953;28;19957;-76
2023/03/11 08:00:22;;;;;;;;;;;;;;;24.53;38.15;96754.38;5094692;28;19916;-77
2023/03/11 08:02:48;;;;;;;;;;;;;;;24.37;38.57;96751.59;5076824;28;19928;-78
2023/03/11 08:05:13;;;;;;;;;;;;;;;24.25;38.86;96747.47;5095128;28;19916;-77
2023/03/11 08:07:38;;;;;;;;;;;;;;;24.24;38.87;96756.53;5077808;28;20004;-77
2023/03/11 08:10:04;;;;;;;;;;;;;;;24.27;39.09;96751.47;5077793;28;19916;-78
2023/03/11 08:12:29;;;;;;;;;;;;;;;24.48;38.64;96756.97;5112879;28;19923;-77
2023/03/11 08:14:54;;;;;;;;;;;;;;;24.51;38.60;96751.13;5077777;28;19915;-77
2023/03/11 08:17:20;;;;;;;;;;;;;;;24.50;38.68;96752.22;5093976;28;19922;-77
2023/03/11 08:19:45;;;;;;;;;;;;;;;24.40;38.54;96750.28;5077758;28;19916;-79
2023/03/11 08:22:10;;;;;;;;;;;;;;;24.35;38.47;96753.72;5113195;28;19922;-80
2023/03/11 08:24:36;;;;;;;;;;;;;;;24.41;38.11;96753.75;5095392;28;19939;-77
2023/03/11 08:27:01;;;;;;;;;;;;;;;24.39;38.09;96751.31;5098638;28;20294;-77
2023/03/11 08:29:26;;;;;;;;;;;;;;;24.38;38.03;96755.03;5098275;28;19916;-78
2023/03/11 08:31:52;;;;;;;;;;;;;;;24.37;37.84;96756.91;5098269;28;20417;-76
2023/03/11 08:34:17;;;;;;;;;;;;;;;24.46;37.65;96751.09;5081156;28;19916;-79
2023/03/11 08:36:42;;;;;;;;;;;;;;;24.60;37.51;96748.84;5098825;28;19923;-77
2023/03/11 08:39:08;;;;;;;;;;;;;;;24.74;36.79;96745.47;5081421;28;19927;-77
2023/03/11 08:41:33;;;;;;;;;;;;;;;25.00;36.31;96748.31;5097343;28;20298;-77
2023/03/11 08:43:58;;;;;;;;;;;;;;;25.22;36.10;96750.00;5081585;28;19916;-79
2023/03/11 08:46:25;;;;;;;;;;;;;;;25.60;35.08;96750.72;5080614;28;19916;-78
2023/03/11 08:48:50;;;;;;;;;;;;;;;26.08;34.70;96745.25;5098326;28;20386;-79
2023/03/11 08:51:15;;;;;;;;;;;;;;;26.45;33.07;96741.53;5097853;28;19916;-77
2023/03/11 08:53:41;;;;;;;;;;;;;;;26.63;31.59;96738.31;5097714;28;19916;-75
2023/03/11 08:56:06;;;;;;;;;;;;;;;27.14;31.81;96737.41;5080942;28;19919;-76
2023/03/11 08:58:32;;;;;;;;;;;;;;;27.96;30.98;96734.41;5081043;28;20298;-75
2023/03/11 09:00:57;;;;;;;;;;;;;;;28.24;30.58;96721.31;5098142;28;19916;-76
2023/03/11 09:03:22;;;;;;;;;;;;;;;28.71;30.09;96724.44;5097463;28;19924;-77
2023/03/11 09:05:48;;;;;;;;;;;;;;;29.49;28.79;96721.69;5080052;28;20043;-78
2023/03/11 09:08:13;;;;;;;;;;;;;;;29.92;28.67;96719.78;5081117;28;19916;-79
2023/03/11 09:10:39;;;;;;;;;;;;;;;30.53;27.81;96711.84;5098097;28;20382;-78
2023/03/11 09:13:04;;;;;;;;;;;;;;;31.08;26.98;96719.22;5097756;28;19920;-77
2023/03/11 09:15:29;;;;;;;;;;;;;;;30.76;27.70;96715.50;5115837;28;20003;-78
2023/03/11 09:17:55;;;;;;;;;;;;;;;30.42;26.15;96715.81;5080458;28;19950;-79
2023/03/11 09:20:20;;;;;;;;;;;;;;;31.33;25.81;96709.03;5097862;28;19919;-78
2023/03/11 09:22:46;;;;;;;;;;;;;;;31.81;25.08;96710.47;5097500;28;20347;-78
2023/03/11 09:25:11;;;;;;;;;;;;;;;31.37;25.65;96701.94;5097596;28;19916;-78
2023/03/11 09:27:37;;;;;;;;;;;;;;;30.90;25.97;96693.97;5097223;28;19916;-78
2023/03/11 09:30:02;;;;;;;;;;;;;;;30.66;25.98;96696.81;5096903;28;20306;-78
2023/03/11 09:32:28;;;;;;;;;;;;;;;30.99;25.60;96686.78;5115345;28;19920;-78
2023/03/11 09:34:53;;;;;;;;;;;;;;;30.44;26.25;96671.38;5080414;28;20393;-79
2023/03/11 09:37:18;;;;;;;;;;;;;;;29.98;26.89;96671.28;5080500;28;20374;-77
2023/03/11 09:39:44;;;;;;;;;;;;;;;29.55;26.67;96677.53;5115655;28;20391;-77
2023/03/11 09:42:09;;;;;;;;;;;;;;;29.13;27.29;96679.13;5115874;28;19916;-79
2023/03/11 09:44:54;;;;;;;;;;;;;;;28.70;27.75;96674.50;5115185;28;19915;-79
2023/03/11 09:47:29;;;;;;;;;;;;;;;28.27;28.27;96667.09;4996216;28;19917;-77
2023/03/11 09:50:03;;;;;;;;;;;;;;;27.88;28.42;96667.13;4996619;28;19965;-77
2023/03/11 09:52:32;;;;;;;;;;;;;;;27.46;29.16;96658.56;4996664;28;20473;-77
2023/03/11 09:54:57;;;;;;;;;;;;;;;27.13;29.47;96660.81;4995979;28;19924;-78
2023/03/11 09:57:27;;;;;;;;;;;;;;;26.78;29.77;96659.88;4996166;28;19918;-77
2023/03/11 09:59:52;;;;;;;;;;;;;;;26.47;30.41;96665.28;4996050;28;19921;-78
2023/03/11 10:02:18;;;;;;;;;;;;;;;26.20;30.86;96673.59;4995877;28;20019;-77
2023/03/11 10:04:49;;;;;;;;;;;;;;;25.90;31.04;96666.34;4979315;28;20004;-78
2023/03/11 10:07:20;;;;;;;;;;;;;;;25.63;31.54;96660.19;5012553;28;19959;-76
2023/03/11 10:09:45;;;;;;;;;;;;;;;25.37;31.86;96659.31;4995858;28;20424;-78
2023/03/11 10:12:16;;;;;;;;;;;;;;;25.19;32.06;96667.75;4995884;28;19917;-77
2023/03/11 10:14:45;;;;;;;;;;;;;;;24.98;32.58;96667.69;4995690;28;19917;-80
2023/03/11 10:17:10;;;;;;;;;;;;;;;24.78;32.83;96665.75;5012038;28;19964;-78
2023/03/11 10:19:36;;;;;;;;;;;;;;;24.65;33.01;96668.84;4995724;28;20067;-78
2023/03/11 10:22:05;;;;;;;;;;;;;;;24.52;33.24;96664.75;4996006;28;20052;-78
2023/03/11 10:24:40;;;;;;;;;;;;;;;24.37;33.48;96662.81;5050777;28;19939;-78
2023/03/11 10:27:08;;;;;;;;;;;;;;;24.23;33.66;96658.94;5078481;28;19922;-79
2023/03/11 10:29:46;;;;;;;;;;;;;;;24.06;33.85;96659.09;5078829;28;19942;-79
2023/03/11 10:32:16;;;;;;;;;;;;;;;23.89;34.07;96659.22;5095993;28;19916;-79
2023/03/11 10:34:47;;;;;;;;;;;;;;;23.74;34.44;96660.66;5096219;28;19915;-79
2023/03/11 10:37:30;;;;;;;;;;;;;;;23.59;34.54;96655.19;5095969;28;19923;-77
2023/03/11 10:39:57;;;;;;;;;;;;;;;23.47;34.40;96658.00;5114534;28;19923;-76
2023/03/11 10:42:23;;;;;;;;;;;;;;;23.48;34.51;96656.94;5096564;28;19920;-77
2023/03/11 10:44:48;;;;;;;;;;;;;;;23.34;34.69;96659.22;5078725;28;19919;-79
2023/03/11 10:47:18;;;;;;;;;;;;;;;23.23;35.00;96657.47;5077833;28;19922;-76
2023/03/11 10:49:43;;;;;;;;;;;;;;;23.14;34.91;96665.09;5079298;28;19920;-78
2023/03/11 10:52:08;;;;;;;;;;;;;;;23.06;35.43;96655.66;5078809;28;20303;-77
2023/03/11 10:54:38;;;;;;;;;;;;;;;23.02;35.00;96654.53;5078781;28;19915;-77
2023/03/11 10:57:22;;;;;;;;;;;;;;;22.98;35.45;96649.94;5114077;28;19916;-78
2023/03/11 10:59:49;;;;;;;;;;;;;;;22.97;35.58;96657.13;5095392;28;20007;-78
2023/03/11 11:02:24;;;;;;;;;;;;;;;22.93;35.63;96659.50;5078430;28;19932;-78
2023/03/11 11:05:01;;;;;;;;;;;;;;;22.86;35.69;96666.84;5095410;28;19919;-78
2023/03/11 11:07:30;;;;;;;;;;;;;;;22.80;35.83;96672.34;5078540;28;19923;-76
2023/03/11 11:10:11;;;;;;;;;;;;;;;22.73;36.28;96669.88;5078202;28;20417;-79
2023/03/11 11:12:55;;;;;;;;;;;;;;;22.66;36.57;96670.06;5113468;28;19916;-79
2023/03/11 11:15:28;;;;;;;;;;;;;;;22.56;36.60;96668.03;5113639;28;19915;-79
2023/03/11 11:17:54;;;;;;;;;;;;;;;22.51;37.23;96667.97;5077950;28;20011;-77
2023/03/11 11:20:20;;;;;;;;;;;;;;;22.47;37.15;96668.69;5078502;28;19916;-77
2023/03/11 11:22:50;;;;;;;;;;;;;;;22.42;37.68;96658.00;5078250;28;19916;-77
2023/03/11 11:25:26;;;;;;;;;;;;;;;22.38;37.98;96663.00;5078341;28;20011;-78
2023/03/11 11:27:55;;;;;;;;;;;;;;;22.31;37.98;96673.00;5094647;28;20006;-77
2023/03/11 11:30:20;;;;;;;;;;;;;;;22.21;38.40;96665.63;5095220;28;20004;-77
2023/03/11 11:32:46;;;;;;;;;;;;;;;22.10;38.87;96682.47;5094561;28;19974;-78
2023/03/11 11:35:15;;;;;;;;;;;;;;;21.98;39.28;96678.03;5095012;28;19923;-79
2023/03/11 11:37:41;;;;;;;;;;;;;;;21.86;39.38;96691.38;5077903;28;19923;-78
2023/03/11 11:40:09;;;;;;;;;;;;;;;21.74;39.76;96690.63;5095157;28;19922;-77
2023/03/11 11:42:35;;;;;;;;;;;;;;;21.61;39.91;96688.28;5094875;28;19923;-81
2023/03/11 11:45:03;;;;;;;;;;;;;;;21.46;40.01;96692.22;5095015;28;19916;-77
2023/03/11 11:47:35;;;;;;;;;;;;;;;21.34;40.27;96704.72;5077868;28;20014;-77
2023/03/11 11:50:01;;;;;;;;;;;;;;;21.20;40.50;96706.03;5078027;28;19920;-77
2023/03/11 11:52:26;;;;;;;;;;;;;;;21.02;41.01;96696.41;5077653;28;19922;-77
2023/03/11 11:54:52;;;;;;;;;;;;;;;20.93;41.16;96693.28;5096096;28;19963;-77
2023/03/11 11:57:18;;;;;;;;;;;;;;;20.80;41.45;96672.34;5095168;28;19916;-78
2023/03/11 11:59:44;;;;;;;;;;;;;;;20.70;41.81;96672.91;5080599;28;19916;-77
2023/03/11 12:02:12;;;;;;;;;;;;;;;20.59;42.21;96685.91;5081865;28;20019;-77
2023/03/11 12:04:37;;;;;;;;;;;;;;;20.51;42.52;96696.06;5117124;28;19919;-78
2023/03/11 12:07:15;;;;;;;;;;;;;;;20.40;42.69;96695.03;5117159;28;19923;-79
2023/03/11 12:09:59;;;;;;;;;;;;;;;20.28;43.05;96688.91;5117296;28;19972;-78
2023/03/11 12:12:24;;;;;;;;;;;;;;;20.15;43.35;96677.50;5098656;28;19917;-78
2023/03/11 12:15:08;;;;;;;;;;;;;;;20.05;43.41;96682.53;5098422;28;20024;-81
2023/03/11 12:17:35;;;;;;;;;;;;;;;19.95;43.48;96685.75;5116737;28;19922;-78
2023/03/11 12:20:06;;;;;;;;;;;;;;;19.91;43.63;96700.47;5081460;28;20371;-78
2023/03/11 12:22:49;;;;;;;;;;;;;;;19.85;43.68;96699.53;5081896;28;20029;-77
2023/03/11 12:25:21;;;;;;;;;;;;;;;19.83;43.66;96698.97;5116966;28;19915;-79
2023/03/11 12:27:58;;;;;;;;;;;;;;;19.86;43.62;96706.47;5081904;28;19924;-78
2023/03/11 12:30:30;;;;;;;;;;;;;;;19.92;43.65;96694.13;5098499;28;19919;-81
2023/03/11 12:32:57;;;;;;;;;;;;;;;20.01;43.46;96686.69;5098198;28;20271;-79
2023/03/11 12:35:23;;;;;;;;;;;;;;;20.15;43.41;96682.00;5081246;28;19915;-81
2023/03/11 12:37:55;;;;;;;;;;;;;;;20.26;43.24;96681.19;5098764;28;19927;-80
2023/03/11 12:40:39;;;;;;;;;;;;;;;20.34;43.43;96686.16;5081966;28;20383;-81
2023/03/11 12:43:20;;;;;;;;;;;;;;;20.42;43.38;96679.69;5082562;28;20387;-82
2023/03/11 12:45:47;;;;;;;;;;;;;;;20.54;43.67;96685.00;5081112;28;19919;-78